Time;durP1;ratioP1;P1;durP2;ratioP2;P2;SDS_P1;SDS_P2;PMS_P1;PMS_P2;Temp;Humidity;BMP_temperature;BMP_pressure;BME280_temperature;BME280_humidity;BME280_pressure;Samples;Min_cycle;Max_cycle;Signal;HPM_P1;HPM_P2
2023/03/18 00:01:20;;;;;;;8.55;4.13;;;;;;;;;;5000370;28;20774;-80
2023/03/18 00:03:54;;;;;;;7.93;4.32;;;;;;;;;;5000151;28;20434;-80
2023/03/18 00:06:27;;;;;;;12.00;4.27;;;;;;;;;;5002127;28;20445;-80
2023/03/18 00:09:01;;;;;;;8.02;4.28;;;;;;;;;;5007208;28;20783;-80
2023/03/18 00:11:34;;;;;;;7.85;4.13;;;;;;;;;;5002104;28;20439;-81
2023/03/18 00:14:03;;;;;;;10.85;4.60;;;;;;;;;;5002565;28;20413;-80
2023/03/18 00:16:36;;;;;;;8.13;4.40;;;;;;;;;;5001072;28;20434;-80
2023/03/18 00:19:10;;;;;;;9.73;4.55;;;;;;;;;;5001573;28;20428;-80
2023/03/18 00:21:43;;;;;;;9.40;4.47;;;;;;;;;;4998315;28;20427;-80
2023/03/18 00:24:11;;;;;;;11.13;5.03;;;;;;;;;;5014920;28;20496;-80
2023/03/18 00:26:44;;;;;;;9.32;4.90;;;;;;;;;;5000945;28;20432;-80
2023/03/18 00:29:17;;;;;;;10.02;4.90;;;;;;;;;;5003509;28;20766;-80
2023/03/18 00:31:50;;;;;;;9.10;4.63;;;;;;;;;;5015282;28;20446;-80
2023/03/18 00:34:24;;;;;;;9.80;4.97;;;;;;;;;;4997732;28;20429;-80
2023/03/18 00:36:55;;;;;;;10.70;5.15;;;;;;;;;;5015593;28;20425;-80
2023/03/18 00:39:31;;;;;;;11.02;5.00;;;;;;;;;;5006615;28;20426;-80
2023/03/18 00:42:09;;;;;;;10.85;5.28;;;;;;;;;;4998933;28;20432;-80
2023/03/18 00:44:43;;;;;;;10.55;5.20;;;;;;;;;;5001343;28;20494;-80
2023/03/18 00:47:12;;;;;;;9.43;5.00;;;;;;;;;;5014727;28;20434;-80
2023/03/18 00:49:41;;;;;;;9.03;4.83;;;;;;;;;;4996517;28;20428;-80
2023/03/18 00:52:09;;;;;;;11.68;5.13;;;;;;;;;;5001945;28;20422;-80
2023/03/18 00:54:37;;;;;;;11.13;4.93;;;;;;;;;;5003988;28;20424;-81
2023/03/18 00:57:11;;;;;;;10.43;4.90;;;;;;;;;;5003667;28;20906;-80
2023/03/18 00:59:39;;;;;;;9.45;5.20;;;;;;;;;;5018803;28;20438;-80
2023/03/18 01:02:12;;;;;;;8.75;4.97;;;;;;;;;;5009798;28;20424;-81
2023/03/18 01:04:46;;;;;;;8.82;4.93;;;;;;;;;;5000706;28;20452;-81
2023/03/18 01:07:19;;;;;;;11.25;5.80;;;;;;;;;;5016770;28;20441;-80
2023/03/18 01:09:53;;;;;;;11.57;4.97;;;;;;;;;;5005541;28;20430;-81
2023/03/18 01:12:21;;;;;;;9.75;5.35;;;;;;;;;;5002526;28;20424;-80
2023/03/18 01:14:49;;;;;;;10.27;5.50;;;;;;;;;;5003521;28;20427;-80
2023/03/18 01:17:22;;;;;;;10.88;5.43;;;;;;;;;;5008881;28;20434;-81
2023/03/18 01:19:56;;;;;;;9.48;5.28;;;;;;;;;;5010183;28;20423;-81
2023/03/18 01:22:29;;;;;;;10.00;5.33;;;;;;;;;;5002940;28;20421;-81
2023/03/18 01:25:02;;;;;;;8.73;5.03;;;;;;;;;;5002740;28;20427;-80
2023/03/18 01:27:36;;;;;;;10.43;5.33;;;;;;;;;;5017245;28;20464;-80
2023/03/18 01:30:05;;;;;;;9.70;5.00;;;;;;;;;;5001191;28;20433;-81
2023/03/18 01:32:38;;;;;;;9.20;4.97;;;;;;;;;;5018499;28;20424;-80
2023/03/18 01:35:12;;;;;;;9.95;5.15;;;;;;;;;;5018072;28;20417;-81
2023/03/18 01:37:45;;;;;;;11.32;5.22;;;;;;;;;;5000463;28;20910;-81
2023/03/18 01:40:19;;;;;;;10.90;5.10;;;;;;;;;;5010724;28;20427;-81
2023/03/18 01:42:56;;;;;;;10.65;4.78;;;;;;;;;;5018953;28;20423;-81
2023/03/18 01:45:34;;;;;;;12.00;4.97;;;;;;;;;;5002596;28;20464;-81
2023/03/18 01:48:10;;;;;;;9.90;5.05;;;;;;;;;;5012624;28;20419;-81
2023/03/18 01:50:47;;;;;;;10.00;5.18;;;;;;;;;;5019400;28;20928;-81
2023/03/18 01:53:16;;;;;;;9.85;5.00;;;;;;;;;;5001175;28;20430;-81
2023/03/18 01:55:45;;;;;;;9.85;5.00;;;;;;;;;;5000447;28;20773;-81
2023/03/18 01:58:20;;;;;;;9.85;4.90;;;;;;;;;;5001506;28;20418;-81
2023/03/18 02:00:56;;;;;;;9.30;4.90;;;;;;;;;;5019621;28;20437;-81
2023/03/18 02:03:29;;;;;;;9.52;4.85;;;;;;;;;;5016904;28;20425;-80
2023/03/18 02:05:58;;;;;;;10.20;5.22;;;;;;;;;;5000035;28;20438;-80
2023/03/18 02:08:26;;;;;;;9.35;4.75;;;;;;;;;;5004702;28;20412;-81
2023/03/18 02:11:01;;;;;;;10.35;5.25;;;;;;;;;;5018646;28;20428;-81
2023/03/18 02:13:37;;;;;;;9.68;5.45;;;;;;;;;;5001101;28;20448;-81
2023/03/18 02:16:09;;;;;;;10.17;5.60;;;;;;;;;;5016592;28;20458;-80
2023/03/18 02:18:38;;;;;;;12.20;5.45;;;;;;;;;;5016836;28;20419;-81
2023/03/18 02:21:26;;;;;;;11.50;5.65;;;;;;;;;;5017990;28;20918;-81
2023/03/18 02:24:03;;;;;;;10.52;5.47;;;;;;;;;;5001535;28;20430;-81
2023/03/18 02:26:39;;;;;;;12.27;5.30;;;;;;;;;;5007847;28;20431;-81
2023/03/18 02:29:12;;;;;;;9.95;5.47;;;;;;;;;;5014506;28;20913;-80
2023/03/18 02:31:52;;;;;;;9.93;5.47;;;;;;;;;;5009019;28;22306;-80
2023/03/18 02:34:25;;;;;;;8.85;5.65;;;;;;;;;;5000449;28;20422;-81
2023/03/18 02:36:58;;;;;;;10.23;5.77;;;;;;;;;;5017962;28;20472;-80
2023/03/18 02:39:31;;;;;;;11.48;6.10;;;;;;;;;;5001280;28;20432;-80
2023/03/18 02:42:05;;;;;;;9.85;5.38;;;;;;;;;;5003101;28;20416;-80
2023/03/18 02:44:40;;;;;;;11.63;5.95;;;;;;;;;;4999879;28;20426;-80
2023/03/18 02:47:36;;;;;;;9.52;5.90;;;;;;;;;;5002586;28;20453;-82
2023/03/18 02:50:09;;;;;;;12.63;5.40;;;;;;;;;;5016508;28;20798;-81
2023/03/18 02:52:42;;;;;;;12.63;5.82;;;;;;;;;;5016418;28;20426;-80
2023/03/18 02:55:15;;;;;;;11.48;5.68;;;;;;;;;;4998636;28;20494;-80
2023/03/18 02:57:48;;;;;;;9.70;5.60;;;;;;;;;;5015072;28;20426;-80
2023/03/18 03:00:22;;;;;;;9.07;5.43;;;;;;;;;;5004716;28;20429;-80
2023/03/18 03:02:55;;;;;;;9.85;5.70;;;;;;;;;;5002600;28;20786;-81
2023/03/18 03:05:23;;;;;;;9.48;5.40;;;;;;;;;;5017104;28;20433;-80
2023/03/18 03:07:57;;;;;;;10.25;5.65;;;;;;;;;;5015927;28;20419;-80
2023/03/18 03:10:32;;;;;;;11.52;5.70;;;;;;;;;;4998796;28;20905;-80
2023/03/18 03:13:08;;;;;;;13.75;6.07;;;;;;;;;;5003708;28;20445;-80
2023/03/18 03:15:37;;;;;;;10.75;5.90;;;;;;;;;;5007812;28;20432;-80
2023/03/18 03:18:05;;;;;;;11.05;5.80;;;;;;;;;;5008038;28;20424;-80
2023/03/18 03:20:38;;;;;;;10.57;5.90;;;;;;;;;;5013895;28;20463;-80
2023/03/18 03:23:12;;;;;;;12.43;6.40;;;;;;;;;;5013257;28;20413;-81
2023/03/18 03:25:48;;;;;;;11.05;6.38;;;;;;;;;;5003523;28;20417;-80
2023/03/18 03:28:21;;;;;;;14.38;6.55;;;;;;;;;;5016088;28;20434;-81
2023/03/18 03:30:50;;;;;;;12.60;6.80;;;;;;;;;;5016585;28;20426;-80
2023/03/18 03:33:19;;;;;;;13.33;6.63;;;;;;;;;;5015169;28;20430;-80
2023/03/18 03:35:47;;;;;;;12.30;6.95;;;;;;;;;;5001325;28;20426;-80
2023/03/18 03:38:15;;;;;;;12.38;6.72;;;;;;;;;;5006909;28;20424;-79
2023/03/18 03:40:47;;;;;;;10.63;6.47;;;;;;;;;;5000507;28;20944;-80
2023/03/18 03:43:21;;;;;;;13.55;6.78;;;;;;;;;;4998554;28;20431;-80
2023/03/18 03:45:55;;;;;;;10.60;6.80;;;;;;;;;;5006943;28;20439;-80
2023/03/18 03:48:28;;;;;;;11.10;6.30;;;;;;;;;;5017851;28;20909;-80
2023/03/18 03:50:56;;;;;;;12.20;6.77;;;;;;;;;;5015677;28;20490;-80
2023/03/18 03:53:29;;;;;;;12.82;6.50;;;;;;;;;;4998766;28;20885;-80
2023/03/18 03:56:02;;;;;;;11.65;6.97;;;;;;;;;;5015019;28;20478;-80
2023/03/18 03:58:30;;;;;;;13.57;6.82;;;;;;;;;;4999008;28;20448;-80
2023/03/18 04:01:05;;;;;;;11.68;6.65;;;;;;;;;;5000417;28;20432;-79
2023/03/18 04:03:38;;;;;;;12.50;6.50;;;;;;;;;;5008020;28;20428;-80
2023/03/18 04:06:10;;;;;;;10.77;6.18;;;;;;;;;;5000420;28;20421;-80
2023/03/18 04:08:51;;;;;;;13.07;6.30;;;;;;;;;;5006265;28;20426;-80
2023/03/18 04:11:25;;;;;;;12.23;6.63;;;;;;;;;;4999686;28;20897;-80
2023/03/18 04:13:53;;;;;;;11.48;6.20;;;;;;;;;;5014034;28;20442;-79
2023/03/18 04:16:22;;;;;;;10.38;6.05;;;;;;;;;;4997815;28;20814;-80
2023/03/18 04:18:56;;;;;;;10.80;6.25;;;;;;;;;;5015990;28;20437;-80
2023/03/18 04:21:30;;;;;;;14.23;6.30;;;;;;;;;;5015429;28;20422;-80
2023/03/18 04:24:03;;;;;;;11.00;6.72;;;;;;;;;;5015463;28;20427;-80
2023/03/18 04:26:36;;;;;;;11.45;6.25;;;;;;;;;;5006103;28;20934;-80
2023/03/18 04:29:09;;;;;;;11.93;6.70;;;;;;;;;;4999101;28;20432;-80
2023/03/18 04:31:43;;;;;;;12.13;6.30;;;;;;;;;;4998878;28;20436;-81
2023/03/18 04:34:11;;;;;;;11.33;6.70;;;;;;;;;;4997509;28;20424;-79
2023/03/18 04:36:45;;;;;;;13.73;7.53;;;;;;;;;;4998692;28;20414;-80
2023/03/18 04:39:13;;;;;;;15.60;7.87;;;;;;;;;;5006357;28;20442;-80
2023/03/18 04:41:41;;;;;;;13.73;7.80;;;;;;;;;;5007177;28;20501;-79
2023/03/18 04:44:16;;;;;;;13.43;7.43;;;;;;;;;;4999587;28;20412;-80
2023/03/18 04:46:53;;;;;;;12.75;8.00;;;;;;;;;;4998690;28;20440;-80
2023/03/18 04:49:26;;;;;;;15.35;7.50;;;;;;;;;;5006137;28;20426;-79
2023/03/18 04:52:02;;;;;;;13.15;7.95;;;;;;;;;;5006604;28;20425;-80
2023/03/18 04:54:37;;;;;;;14.37;7.40;;;;;;;;;;5000231;28;20433;-80
2023/03/18 04:57:06;;;;;;;16.27;8.00;;;;;;;;;;5015111;28;20423;-80
2023/03/18 04:59:46;;;;;;;13.95;7.60;;;;;;;;;;4999198;28;20432;-79
2023/03/18 05:02:18;;;;;;;12.32;7.32;;;;;;;;;;5004419;28;20425;-80
2023/03/18 05:04:51;;;;;;;13.63;7.38;;;;;;;;;;5006273;28;20426;-79
2023/03/18 05:07:20;;;;;;;15.73;7.63;;;;;;;;;;5005150;28;20424;-80
2023/03/18 05:10:00;;;;;;;14.20;7.28;;;;;;;;;;5015684;28;20893;-80
2023/03/18 05:12:29;;;;;;;11.73;6.67;;;;;;;;;;4997548;28;20429;-79
2023/03/18 05:15:02;;;;;;;12.25;7.32;;;;;;;;;;4998650;28;20449;-80
2023/03/18 05:17:42;;;;;;;12.60;7.10;;;;;;;;;;5001196;28;20783;-79
2023/03/18 05:20:15;;;;;;;14.63;7.50;;;;;;;;;;5004933;28;20776;-79
2023/03/18 05:22:48;;;;;;;17.05;7.22;;;;;;;;;;5000790;28;20428;-79
2023/03/18 05:25:26;;;;;;;14.18;7.72;;;;;;;;;;5015538;28;20431;-79
2023/03/18 05:28:00;;;;;;;13.73;8.00;;;;;;;;;;4999696;28;20447;-79
2023/03/18 05:30:43;;;;;;;18.17;10.23;;;;;;;;;;5014346;28;20421;-79
2023/03/18 05:33:18;;;;;;;24.20;12.18;;;;;;;;;;5016311;28;20431;-80
2023/03/18 05:35:54;;;;;;;23.93;13.03;;;;;;;;;;5006110;28;20525;-80
2023/03/18 05:38:28;;;;;;;20.58;11.95;;;;;;;;;;4999260;28;20427;-80
2023/03/18 05:41:01;;;;;;;17.80;9.75;;;;;;;;;;5016234;28;20453;-79
2023/03/18 05:43:38;;;;;;;19.23;11.13;;;;;;;;;;5009595;28;20428;-79
2023/03/18 05:46:06;;;;;;;19.60;10.50;;;;;;;;;;5003364;28;20789;-79
2023/03/18 05:48:53;;;;;;;19.90;10.60;;;;;;;;;;4999906;28;20533;-79
2023/03/18 05:51:31;;;;;;;16.25;9.15;;;;;;;;;;5019151;28;20418;-80
2023/03/18 05:54:00;;;;;;;17.13;10.30;;;;;;;;;;4999920;28;20430;-80
2023/03/18 05:56:32;;;;;;;19.42;10.68;;;;;;;;;;5009710;28;20428;-79
2023/03/18 05:59:04;;;;;;;16.55;9.43;;;;;;;;;;5009889;28;21086;-79
2023/03/18 06:01:40;;;;;;;19.23;9.50;;;;;;;;;;5005192;28;20753;-79
2023/03/18 06:04:16;;;;;;;20.58;9.75;;;;;;;;;;5013454;28;20436;-80
2023/03/18 06:06:48;;;;;;;16.83;9.55;;;;;;;;;;5003224;28;20418;-80
2023/03/18 06:09:22;;;;;;;17.35;9.80;;;;;;;;;;5018504;28;20425;-80
2023/03/18 06:11:54;;;;;;;19.95;10.00;;;;;;;;;;5002061;28;20414;-79
2023/03/18 06:14:28;;;;;;;15.77;9.77;;;;;;;;;;5000443;28;20824;-79
2023/03/18 06:17:03;;;;;;;15.95;8.95;;;;;;;;;;5002043;28;20422;-80
2023/03/18 06:19:37;;;;;;;16.83;8.90;;;;;;;;;;5017624;28;20424;-80
2023/03/18 06:22:10;;;;;;;17.58;9.35;;;;;;;;;;5000619;28;20425;-80
2023/03/18 06:24:39;;;;;;;16.83;9.43;;;;;;;;;;5001101;28;20430;-79
2023/03/18 06:27:12;;;;;;;15.93;9.30;;;;;;;;;;5007074;28;20410;-80
2023/03/18 06:29:49;;;;;;;18.08;10.15;;;;;;;;;;5001781;28;20428;-79
2023/03/18 06:32:22;;;;;;;18.30;9.93;;;;;;;;;;5015107;28;21282;-79
2023/03/18 06:34:51;;;;;;;18.73;10.63;;;;;;;;;;4998988;28;20462;-79
2023/03/18 06:37:20;;;;;;;18.73;10.38;;;;;;;;;;5000764;28;20426;-80
2023/03/18 06:39:53;;;;;;;17.67;9.93;;;;;;;;;;5004861;28;20428;-80
2023/03/18 06:42:26;;;;;;;19.73;10.50;;;;;;;;;;5007064;28;20427;-79
2023/03/18 06:45:14;;;;;;;21.70;9.90;;;;;;;;;;5017407;28;20425;-80
2023/03/18 06:47:51;;;;;;;19.00;10.35;;;;;;;;;;5011328;28;20430;-80
2023/03/18 06:50:26;;;;;;;20.40;10.57;;;;;;;;;;4999057;28;20432;-80
2023/03/18 06:53:00;;;;;;;21.35;10.25;;;;;;;;;;5007280;28;20421;-80
2023/03/18 06:55:34;;;;;;;18.85;9.90;;;;;;;;;;5001105;28;20420;-80
2023/03/18 06:58:04;;;;;;;22.45;10.10;;;;;;;;;;5000641;28;20428;-80
2023/03/18 07:00:44;;;;;;;20.00;10.18;;;;;;;;;;5001232;28;20432;-80
2023/03/18 07:03:22;;;;;;;21.08;9.95;;;;;;;;;;5004056;28;21073;-81
2023/03/18 07:05:56;;;;;;;17.92;9.52;;;;;;;;;;4999710;28;20908;-80
2023/03/18 07:08:30;;;;;;;20.13;10.27;;;;;;;;;;5001469;28;20938;-79
2023/03/18 07:10:58;;;;;;;19.67;9.35;;;;;;;;;;5004256;28;20902;-80
2023/03/18 07:13:27;;;;;;;18.42;9.98;;;;;;;;;;5001913;28;20425;-80
2023/03/18 07:15:56;;;;;;;19.38;10.32;;;;;;;;;;5001723;28;20707;-80
2023/03/18 07:18:29;;;;;;;18.35;10.10;;;;;;;;;;5005278;28;20438;-80
2023/03/18 07:20:58;;;;;;;18.25;9.95;;;;;;;;;;5014969;28;20442;-80
2023/03/18 07:23:31;;;;;;;20.08;10.10;;;;;;;;;;4998996;28;20452;-80
2023/03/18 07:26:04;;;;;;;18.87;10.50;;;;;;;;;;5013034;28;20444;-80
2023/03/18 07:28:38;;;;;;;20.98;10.98;;;;;;;;;;5000596;28;20413;-79
2023/03/18 07:31:11;;;;;;;24.33;11.93;;;;;;;;;;5006067;28;20445;-79
2023/03/18 07:33:39;;;;;;;21.10;11.27;;;;;;;;;;5000092;28;20418;-80
2023/03/18 07:36:14;;;;;;;25.05;11.35;;;;;;;;;;5003691;28;20437;-80
2023/03/18 07:38:46;;;;;;;22.58;11.50;;;;;;;;;;5000609;28;20434;-80
2023/03/18 07:41:19;;;;;;;18.52;10.90;;;;;;;;;;5003416;28;20928;-80
2023/03/18 07:43:52;;;;;;;23.48;11.23;;;;;;;;;;5000653;28;20883;-81
2023/03/18 07:46:26;;;;;;;18.23;11.18;;;;;;;;;;5001743;28;20442;-80
2023/03/18 07:48:59;;;;;;;21.17;11.23;;;;;;;;;;4999346;28;20459;-80
2023/03/18 07:51:33;;;;;;;21.05;11.60;;;;;;;;;;5003439;28;20442;-80
2023/03/18 07:54:06;;;;;;;18.13;10.40;;;;;;;;;;4999430;28;20434;-80
2023/03/18 07:56:34;;;;;;;18.88;10.68;;;;;;;;;;4998634;28;20414;-80
2023/03/18 07:59:09;;;;;;;23.60;11.30;;;;;;;;;;5011924;28;20436;-80
2023/03/18 08:01:42;;;;;;;23.13;11.32;;;;;;;;;;4998205;28;20779;-79
2023/03/18 08:04:10;;;;;;;18.52;10.30;;;;;;;;;;5003643;28;20440;-80
2023/03/18 08:06:44;;;;;;;21.15;11.00;;;;;;;;;;4997790;28;20430;-80
2023/03/18 08:09:12;;;;;;;22.17;10.85;;;;;;;;;;4997530;28;20433;-80
2023/03/18 08:11:40;;;;;;;18.98;10.82;;;;;;;;;;5000308;28;20428;-83
2023/03/18 08:14:08;;;;;;;17.17;10.20;;;;;;;;;;5000276;28;20447;-80
2023/03/18 08:16:41;;;;;;;20.38;10.68;;;;;;;;;;4998653;28;20917;-80
2023/03/18 08:19:08;;;;;;;19.80;10.00;;;;;;;;;;4997985;28;20794;-80
2023/03/18 08:21:36;;;;;;;20.25;10.25;;;;;;;;;;5012489;28;20465;-80
2023/03/18 08:24:06;;;;;;;19.95;10.50;;;;;;;;;;5002211;28;20441;-80
2023/03/18 08:26:39;;;;;;;16.55;9.65;;;;;;;;;;5005698;28;20796;-80
2023/03/18 08:29:12;;;;;;;18.60;10.27;;;;;;;;;;4997951;28;20446;-80
2023/03/18 08:31:45;;;;;;;17.98;9.10;;;;;;;;;;4994658;28;20894;-80
2023/03/18 08:34:13;;;;;;;21.27;10.02;;;;;;;;;;5001709;28;20488;-80
2023/03/18 08:36:46;;;;;;;15.95;9.88;;;;;;;;;;5011949;28;21218;-79
2023/03/18 08:39:20;;;;;;;24.10;10.13;;;;;;;;;;4997158;28;20445;-80
2023/03/18 08:41:48;;;;;;;18.88;9.57;;;;;;;;;;5000764;28;20432;-80
2023/03/18 08:44:22;;;;;;;17.02;9.43;;;;;;;;;;5013423;28;20802;-84
2023/03/18 08:46:54;;;;;;;19.65;10.23;;;;;;;;;;4999782;28;20434;-80
2023/03/18 08:49:28;;;;;;;18.80;10.00;;;;;;;;;;5011568;28;20789;-80
2023/03/18 08:52:01;;;;;;;17.25;9.40;;;;;;;;;;5011886;28;20450;-80
2023/03/18 08:54:30;;;;;;;17.77;9.40;;;;;;;;;;5012958;28;20937;-80
2023/03/18 08:56:59;;;;;;;18.70;9.93;;;;;;;;;;4998462;28;20934;-80
2023/03/18 08:59:32;;;;;;;18.20;9.30;;;;;;;;;;5012529;28;20432;-80
2023/03/18 09:02:05;;;;;;;19.42;10.18;;;;;;;;;;4999368;28;20425;-79
2023/03/18 09:04:32;;;;;;;16.65;9.77;;;;;;;;;;4998344;28;20765;-79
2023/03/18 09:07:05;;;;;;;17.37;9.80;;;;;;;;;;4998292;28;20441;-80
2023/03/18 09:09:40;;;;;;;16.05;9.55;;;;;;;;;;5011310;28;20449;-80
2023/03/18 09:12:12;;;;;;;17.00;9.57;;;;;;;;;;5000325;28;20818;-80
2023/03/18 09:14:46;;;;;;;19.65;9.80;;;;;;;;;;4998499;28;20430;-79
2023/03/18 09:17:18;;;;;;;18.90;9.13;;;;;;;;;;4999588;28;20436;-80
2023/03/18 09:19:51;;;;;;;19.52;10.18;;;;;;;;;;5014100;28;20443;-80
2023/03/18 09:22:20;;;;;;;20.05;9.65;;;;;;;;;;5006401;28;20433;-79
2023/03/18 09:24:54;;;;;;;19.77;9.95;;;;;;;;;;5002404;28;20768;-80
2023/03/18 09:27:27;;;;;;;18.23;9.97;;;;;;;;;;5001924;28;20440;-80
2023/03/18 09:30:00;;;;;;;18.15;9.60;;;;;;;;;;5001435;28;20464;-80
2023/03/18 09:32:28;;;;;;;16.92;9.32;;;;;;;;;;5016630;28;20433;-80
2023/03/18 09:34:55;;;;;;;17.60;9.73;;;;;;;;;;5003411;28;20437;-80
2023/03/18 09:37:28;;;;;;;16.67;9.57;;;;;;;;;;5004160;28;20466;-80
2023/03/18 09:40:02;;;;;;;16.95;9.63;;;;;;;;;;5001037;28;20443;-80
2023/03/18 09:42:45;;;;;;;16.55;8.80;;;;;;;;;;5001387;28;20434;-80
2023/03/18 09:45:21;;;;;;;19.27;8.95;;;;;;;;;;5013171;28;20442;-80
2023/03/18 09:48:00;;;;;;;17.30;9.73;;;;;;;;;;5003200;28;20779;-80
2023/03/18 09:50:36;;;;;;;19.58;9.23;;;;;;;;;;5016316;28;20934;-80
2023/03/18 09:53:14;;;;;;;19.55;9.63;;;;;;;;;;5001026;28;20427;-80
2023/03/18 09:55:45;;;;;;;21.08;9.40;;;;;;;;;;5001269;28;20432;-80
2023/03/18 09:58:20;;;;;;;18.52;9.60;;;;;;;;;;5016933;28;20426;-80
2023/03/18 10:00:48;;;;;;;18.52;9.45;;;;;;;;;;5014677;28;20438;-81
2023/03/18 10:03:26;;;;;;;16.10;9.30;;;;;;;;;;5016308;28;20432;-79
2023/03/18 10:06:02;;;;;;;17.10;8.80;;;;;;;;;;5000918;28;20434;-80
2023/03/18 10:08:38;;;;;;;16.58;8.85;;;;;;;;;;5017877;28;20440;-80
2023/03/18 10:11:17;;;;;;;15.82;8.50;;;;;;;;;;5015748;28;20450;-80
2023/03/18 10:13:56;;;;;;;15.40;8.68;;;;;;;;;;4999644;28;20433;-80
2023/03/18 10:16:30;;;;;;;18.02;8.75;;;;;;;;;;5002164;28;20432;-81
2023/03/18 10:19:03;;;;;;;15.60;8.50;;;;;;;;;;4988693;28;20432;-81
2023/03/18 10:21:40;;;;;;;16.10;8.60;;;;;;;;;;4993260;28;20440;-81
2023/03/18 10:24:20;;;;;;;15.50;8.60;;;;;;;;;;4982104;28;20472;-80
2023/03/18 10:26:58;;;;;;;17.52;8.65;;;;;;;;;;4991910;28;20433;-80
2023/03/18 10:29:34;;;;;;;17.40;8.68;;;;;;;;;;4976898;28;20897;-80
2023/03/18 10:32:19;;;;;;;13.05;7.35;;;;;;;;;;4981587;28;20433;-80
2023/03/18 10:34:56;;;;;;;13.55;7.28;;;;;;;;;;4991843;28;20870;-80
2023/03/18 10:37:36;;;;;;;13.73;6.57;;;;;;;;;;5001454;28;20464;-80
2023/03/18 10:40:12;;;;;;;11.98;6.82;;;;;;;;;;5003016;28;20425;-81
2023/03/18 10:42:42;;;;;;;12.05;6.70;;;;;;;;;;5000104;28;20433;-80
2023/03/18 10:45:17;;;;;;;12.98;7.03;;;;;;;;;;5001746;28;20441;-79
2023/03/18 10:47:54;;;;;;;11.27;6.20;;;;;;;;;;5001267;28;20794;-80
2023/03/18 10:50:24;;;;;;;10.27;6.13;;;;;;;;;;5016902;28;20899;-80
2023/03/18 10:53:00;;;;;;;12.82;6.72;;;;;;;;;;4999455;28;20422;-80
2023/03/18 10:55:36;;;;;;;13.43;6.68;;;;;;;;;;5002443;28;20443;-79
2023/03/18 10:58:18;;;;;;;11.50;6.10;;;;;;;;;;5013856;28;20457;-80
2023/03/18 11:00:51;;;;;;;15.93;6.20;;;;;;;;;;4998689;28;20441;-79
2023/03/18 11:03:26;;;;;;;11.25;6.18;;;;;;;;;;4999557;28;20785;-80
2023/03/18 11:05:54;;;;;;;13.18;6.40;;;;;;;;;;4999651;28;20886;-80
2023/03/18 11:08:31;;;;;;;12.35;6.15;;;;;;;;;;5005376;28;20774;-80
2023/03/18 11:11:02;;;;;;;13.90;6.20;;;;;;;;;;5000030;28;20442;-81
2023/03/18 11:13:37;;;;;;;9.70;5.25;;;;;;;;;;5001006;28;20439;-79
2023/03/18 11:16:05;;;;;;;10.20;5.38;;;;;;;;;;5014054;28;21162;-80
2023/03/18 11:18:38;;;;;;;11.33;5.33;;;;;;;;;;4998206;28;20443;-79
2023/03/18 11:21:12;;;;;;;10.55;5.47;;;;;;;;;;4996811;28;21122;-80
2023/03/18 11:23:55;;;;;;;10.23;5.10;;;;;;;;;;4996575;28;20436;-81
2023/03/18 11:26:23;;;;;;;8.88;4.45;;;;;;;;;;4994021;28;20440;-80
2023/03/18 11:28:58;;;;;;;8.07;4.28;;;;;;;;;;4978812;28;20432;-80
2023/03/18 11:31:26;;;;;;;8.63;3.92;;;;;;;;;;4991083;28;20428;-81
2023/03/18 11:33:59;;;;;;;8.33;3.93;;;;;;;;;;4975948;28;20552;-81
2023/03/18 11:36:32;;;;;;;10.18;4.18;;;;;;;;;;4977133;28;20424;-80
2023/03/18 11:39:06;;;;;;;8.32;4.30;;;;;;;;;;4973964;28;20438;-81
2023/03/18 11:41:39;;;;;;;9.48;4.38;;;;;;;;;;4973951;28;20440;-80
2023/03/18 11:44:17;;;;;;;9.45;4.40;;;;;;;;;;4970489;28;20428;-80
2023/03/18 11:46:47;;;;;;;10.02;4.80;;;;;;;;;;4968832;28;20436;-80
2023/03/18 11:49:16;;;;;;;9.30;5.30;;;;;;;;;;4970633;28;20437;-80
2023/03/18 11:51:46;;;;;;;8.93;4.53;;;;;;;;;;4996983;28;20444;-81
2023/03/18 11:54:23;;;;;;;10.65;5.28;;;;;;;;;;4981002;28;20440;-81
2023/03/18 11:57:00;;;;;;;11.57;6.18;;;;;;;;;;4973657;28;20444;-80
2023/03/18 11:59:35;;;;;;;11.65;6.13;;;;;;;;;;4974653;28;20428;-81
2023/03/18 12:02:32;;;;;;;14.10;6.87;;;;;;;;;;4979147;28;21653;-80
2023/03/18 12:05:20;;;;;;;13.18;6.18;;;;;;;;;;4977904;28;21003;-80
2023/03/18 12:07:59;;;;;;;11.00;5.97;;;;;;;;;;4969417;28;21961;-80
2023/03/18 12:10:35;;;;;;;11.27;5.85;;;;;;;;;;4975258;28;20444;-81
2023/03/18 12:13:12;;;;;;;10.35;5.18;;;;;;;;;;4982637;28;21093;-81
2023/03/18 12:15:47;;;;;;;10.07;5.60;;;;;;;;;;4984473;28;20428;-81
2023/03/18 12:18:22;;;;;;;9.90;4.93;;;;;;;;;;4982790;28;21020;-81
2023/03/18 12:20:55;;;;;;;11.05;4.90;;;;;;;;;;4991129;28;20801;-80
2023/03/18 12:23:34;;;;;;;11.35;5.18;;;;;;;;;;4972996;28;20422;-81
2023/03/18 12:26:08;;;;;;;9.60;5.20;;;;;;;;;;4974147;28;21074;-80
2023/03/18 12:29:01;;;;;;;10.70;5.07;;;;;;;;;;4972185;28;20440;-80
2023/03/18 12:31:40;;;;;;;10.80;4.88;;;;;;;;;;4966366;28;20437;-80
2023/03/18 12:34:17;;;;;;;9.52;4.78;;;;;;;;;;4971848;28;20441;-81
2023/03/18 12:36:56;;;;;;;9.38;4.47;;;;;;;;;;4976083;28;20441;-80
2023/03/18 12:39:51;;;;;;;8.45;4.22;;;;;;;;;;4969977;28;20420;-81
2023/03/18 12:42:22;;;;;;;10.48;4.78;;;;;;;;;;4974142;28;20431;-81
2023/03/18 12:44:57;;;;;;;9.93;5.07;;;;;;;;;;4974495;28;21118;-81
2023/03/18 12:47:34;;;;;;;10.70;4.93;;;;;;;;;;4971505;28;21240;-80
2023/03/18 12:50:03;;;;;;;10.00;5.47;;;;;;;;;;4976420;28;20438;-81
2023/03/18 12:52:38;;;;;;;12.17;5.90;;;;;;;;;;5003486;28;20436;-80
2023/03/18 12:55:14;;;;;;;11.10;6.00;;;;;;;;;;4982674;28;20442;-80
2023/03/18 12:57:48;;;;;;;11.50;6.00;;;;;;;;;;4998650;28;20432;-81
2023/03/18 13:00:24;;;;;;;11.70;5.85;;;;;;;;;;4981509;28;21423;-81
2023/03/18 13:03:02;;;;;;;11.23;5.88;;;;;;;;;;4977956;28;20435;-80
2023/03/18 13:05:45;;;;;;;11.00;5.60;;;;;;;;;;4978366;28;20439;-80
2023/03/18 13:08:24;;;;;;;11.25;5.40;;;;;;;;;;4975815;28;20437;-81
2023/03/18 13:11:00;;;;;;;10.40;5.07;;;;;;;;;;4979942;28;20436;-80
2023/03/18 13:13:34;;;;;;;10.45;4.90;;;;;;;;;;4977400;28;21153;-80
2023/03/18 13:16:07;;;;;;;9.85;4.80;;;;;;;;;;4971626;28;20425;-80
2023/03/18 13:18:44;;;;;;;9.45;5.20;;;;;;;;;;4976830;28;20932;-81
2023/03/18 13:21:19;;;;;;;11.38;4.95;;;;;;;;;;4998375;28;20936;-80
2023/03/18 13:24:01;;;;;;;10.48;4.90;;;;;;;;;;4984456;28;20448;-80
2023/03/18 13:26:43;;;;;;;9.43;4.60;;;;;;;;;;4989099;28;20447;-80
2023/03/18 13:29:21;;;;;;;12.15;4.80;;;;;;;;;;4952723;28;20440;-80
2023/03/18 13:32:01;;;;;;;9.63;4.97;;;;;;;;;;4975006;28;20461;-80
2023/03/18 13:34:58;;;;;;;9.35;3.83;;;;;;;;;;4986421;28;20516;-81
2023/03/18 13:37:47;;;;;;;7.05;3.15;;;;;;;;;;4972479;28;20436;-80
2023/03/18 13:40:37;;;;;;;8.25;3.00;;;;;;;;;;4976220;28;20443;-80
2023/03/18 13:43:12;;;;;;;5.75;2.75;;;;;;;;;;4971354;28;20439;-81
2023/03/18 13:45:46;;;;;;;5.65;2.80;;;;;;;;;;4999865;28;20428;-80
2023/03/18 13:48:21;;;;;;;7.32;3.03;;;;;;;;;;5013623;28;20461;-81
2023/03/18 13:50:56;;;;;;;8.57;3.58;;;;;;;;;;4998465;28;20441;-81
2023/03/18 13:53:27;;;;;;;9.00;4.40;;;;;;;;;;5014186;28;20438;-81
2023/03/18 13:56:02;;;;;;;12.40;5.65;;;;;;;;;;5013295;28;20432;-80
2023/03/18 13:58:43;;;;;;;9.52;5.10;;;;;;;;;;5006735;28;20434;-81
2023/03/18 14:01:37;;;;;;;10.63;5.10;;;;;;;;;;5003463;28;20418;-81
2023/03/18 14:04:20;;;;;;;9.90;4.75;;;;;;;;;;5000746;28;20418;-80
2023/03/18 14:06:54;;;;;;;11.32;4.70;;;;;;;;;;5003604;28;20424;-80
2023/03/18 14:09:33;;;;;;;10.35;4.88;;;;;;;;;;5001069;28;20426;-80
2023/03/18 14:12:20;;;;;;;10.05;4.40;;;;;;;;;;5001410;28;20996;-80
2023/03/18 14:14:57;;;;;;;9.65;3.67;;;;;;;;;;5000429;28;20890;-80
2023/03/18 14:17:35;;;;;;;7.77;3.80;;;;;;;;;;5008956;28;20421;-79
2023/03/18 14:20:21;;;;;;;8.07;3.90;;;;;;;;;;5014557;28;20435;-80
2023/03/18 14:22:55;;;;;;;7.10;3.30;;;;;;;;;;5005453;28;20417;-81
2023/03/18 14:25:34;;;;;;;7.40;3.60;;;;;;;;;;5003618;28;20417;-80
2023/03/18 14:28:13;;;;;;;7.10;3.40;;;;;;;;;;5007648;28;20430;-80
2023/03/18 14:30:47;;;;;;;11.20;2.97;;;;;;;;;;5004279;28;20424;-80
2023/03/18 14:33:34;;;;;;;5.55;2.78;;;;;;;;;;5016044;28;20429;-80
2023/03/18 14:36:08;;;;;;;6.28;2.80;;;;;;;;;;5017807;28;20423;-80
2023/03/18 14:38:46;;;;;;;7.37;2.63;;;;;;;;;;4998995;28;20443;-80
2023/03/18 14:41:24;;;;;;;9.30;2.80;;;;;;;;;;5007459;28;20417;-80
2023/03/18 14:44:01;;;;;;;6.38;2.95;;;;;;;;;;5007452;28;20907;-80
2023/03/18 14:46:37;;;;;;;8.43;3.30;;;;;;;;;;4997791;28;20430;-80
2023/03/18 14:49:28;;;;;;;8.60;3.60;;;;;;;;;;5003147;28;20425;-80
2023/03/18 14:52:01;;;;;;;7.47;3.10;;;;;;;;;;4996717;28;20433;-80
2023/03/18 14:54:38;;;;;;;9.60;3.10;;;;;;;;;;5008953;28;20916;-80
2023/03/18 14:57:12;;;;;;;8.32;3.30;;;;;;;;;;5014571;28;20432;-80
2023/03/18 14:59:45;;;;;;;7.10;3.37;;;;;;;;;;5007823;28;20452;-80
2023/03/18 15:02:20;;;;;;;8.45;3.83;;;;;;;;;;5017158;28;20437;-80
2023/03/18 15:04:53;;;;;;;10.30;3.80;;;;;;;;;;5003018;28;20423;-80
2023/03/18 15:07:32;;;;;;;8.52;4.25;;;;;;;;;;5017444;28;20915;-80
2023/03/18 15:10:07;;;;;;;8.23;4.30;;;;;;;;;;5002472;28;20459;-79
2023/03/18 15:12:37;;;;;;;8.20;4.45;;;;;;;;;;4996115;28;20432;-80